sensor_id;sensor_type;location;lat;lon;timestamp;temperature;humidity
34574;DHT22;20809;49.594;8.734;2023-06-22T00:00:24;22.00;99.90
34574;DHT22;20809;49.594;8.734;2023-06-22T00:03:27;22.00;99.90
34574;DHT22;20809;49.594;8.734;2023-06-22T00:06:30;22.00;99.90
34574;DHT22;20809;49.594;8.734;2023-06-22T00:09:32;22.00;99.90
34574;DHT22;20809;49.594;8.734;2023-06-22T00:12:35;22.00;99.90
34574;DHT22;20809;49.594;8.734;2023-06-22T00:15:39;22.00;99.90
34574;DHT22;20809;49.594;8.734;2023-06-22T00:18:46;21.90;99.90
34574;DHT22;20809;49.594;8.734;2023-06-22T00:21:52;21.80;99.90
34574;DHT22;20809;49.594;8.734;2023-06-22T00:25:02;21.70;99.90
34574;DHT22;20809;49.594;8.734;2023-06-22T00:28:05;21.70;99.90
34574;DHT22;20809;49.594;8.734;2023-06-22T00:31:08;21.80;99.90
34574;DHT22;20809;49.594;8.734;2023-06-22T00:34:10;21.80;99.90
34574;DHT22;20809;49.594;8.734;2023-06-22T00:37:16;21.90;99.90
34574;DHT22;20809;49.594;8.734;2023-06-22T00:40:18;21.90;99.90
34574;DHT22;20809;49.594;8.734;2023-06-22T00:43:26;21.90;99.90
34574;DHT22;20809;49.594;8.734;2023-06-22T00:46:28;22.00;99.90
34574;DHT22;20809;49.594;8.734;2023-06-22T00:49:31;22.00;99.90
34574;DHT22;20809;49.594;8.734;2023-06-22T00:52:33;22.00;99.90
34574;DHT22;20809;49.594;8.734;2023-06-22T00:59:11;22.00;99.90
34574;DHT22;20809;49.594;8.734;2023-06-22T01:02:14;22.00;99.90
34574;DHT22;20809;49.594;8.734;2023-06-22T01:05:19;22.10;99.90
34574;DHT22;20809;49.594;8.734;2023-06-22T01:08:40;22.10;99.90
34574;DHT22;20809;49.594;8.734;2023-06-22T01:11:57;22.20;99.90
34574;DHT22;20809;49.594;8.734;2023-06-22T01:15:08;21.90;99.90
34574;DHT22;20809;49.594;8.734;2023-06-22T01:18:11;20.90;99.90
34574;DHT22;20809;49.594;8.734;2023-06-22T01:21:17;20.40;99.90
34574;DHT22;20809;49.594;8.734;2023-06-22T01:30:45;19.80;99.90
34574;DHT22;20809;49.594;8.734;2023-06-22T01:33:57;19.60;99.90
34574;DHT22;20809;49.594;8.734;2023-06-22T01:37:02;19.60;99.90
34574;DHT22;20809;49.594;8.734;2023-06-22T01:40:06;19.70;99.90
34574;DHT22;20809;49.594;8.734;2023-06-22T01:43:10;20.00;99.90
34574;DHT22;20809;49.594;8.734;2023-06-22T01:46:13;20.00;99.90
34574;DHT22;20809;49.594;8.734;2023-06-22T01:49:16;20.00;99.90
34574;DHT22;20809;49.594;8.734;2023-06-22T01:52:19;20.00;99.90
34574;DHT22;20809;49.594;8.734;2023-06-22T01:55:22;20.10;99.90
34574;DHT22;20809;49.594;8.734;2023-06-22T01:58:30;20.00;99.90
34574;DHT22;20809;49.594;8.734;2023-06-22T02:01:40;20.00;99.90
34574;DHT22;20809;49.594;8.734;2023-06-22T02:04:51;20.00;99.90
34574;DHT22;20809;49.594;8.734;2023-06-22T02:08:10;20.00;99.90
34574;DHT22;20809;49.594;8.734;2023-06-22T02:11:15;20.00;99.90
34574;DHT22;20809;49.594;8.734;2023-06-22T02:14:19;19.90;99.90
34574;DHT22;20809;49.594;8.734;2023-06-22T02:17:22;19.80;99.90
34574;DHT22;20809;49.594;8.734;2023-06-22T02:20:25;19.80;99.90
34574;DHT22;20809;49.594;8.734;2023-06-22T02:23:28;19.80;99.90
34574;DHT22;20809;49.594;8.734;2023-06-22T02:26:30;19.80;99.90
34574;DHT22;20809;49.594;8.734;2023-06-22T02:29:34;19.80;99.90
34574;DHT22;20809;49.594;8.734;2023-06-22T02:32:39;19.80;99.90
34574;DHT22;20809;49.594;8.734;2023-06-22T02:35:45;19.80;99.90
34574;DHT22;20809;49.594;8.734;2023-06-22T02:38:50;19.80;99.90
34574;DHT22;20809;49.594;8.734;2023-06-22T02:41:54;19.60;99.90
34574;DHT22;20809;49.594;8.734;2023-06-22T02:44:56;19.60;99.90
34574;DHT22;20809;49.594;8.734;2023-06-22T02:47:59;19.60;99.90
34574;DHT22;20809;49.594;8.734;2023-06-22T02:51:04;19.60;99.90
34574;DHT22;20809;49.594;8.734;2023-06-22T02:54:07;19.60;99.90
34574;DHT22;20809;49.594;8.734;2023-06-22T02:57:09;19.40;99.90
34574;DHT22;20809;49.594;8.734;2023-06-22T03:00:15;19.30;99.90
34574;DHT22;20809;49.594;8.734;2023-06-22T03:03:20;19.30;99.90
34574;DHT22;20809;49.594;8.734;2023-06-22T03:06:22;19.20;99.90
34574;DHT22;20809;49.594;8.734;2023-06-22T03:09:24;19.00;99.90
34574;DHT22;20809;49.594;8.734;2023-06-22T03:12:26;19.10;99.90
34574;DHT22;20809;49.594;8.734;2023-06-22T03:15:33;19.00;99.90
34574;DHT22;20809;49.594;8.734;2023-06-22T03:18:35;19.00;99.90
34574;DHT22;20809;49.594;8.734;2023-06-22T03:21:40;19.00;99.90
34574;DHT22;20809;49.594;8.734;2023-06-22T03:24:42;19.00;99.90
34574;DHT22;20809;49.594;8.734;2023-06-22T03:27:43;19.00;99.90
34574;DHT22;20809;49.594;8.734;2023-06-22T03:30:48;18.90;99.90
34574;DHT22;20809;49.594;8.734;2023-06-22T03:33:49;18.90;99.90
34574;DHT22;20809;49.594;8.734;2023-06-22T03:36:51;19.00;99.90
34574;DHT22;20809;49.594;8.734;2023-06-22T03:39:56;19.00;99.90
34574;DHT22;20809;49.594;8.734;2023-06-22T03:42:56;19.00;99.90
34574;DHT22;20809;49.594;8.734;2023-06-22T03:46:01;19.00;99.90
34574;DHT22;20809;49.594;8.734;2023-06-22T03:49:03;19.00;99.90
34574;DHT22;20809;49.594;8.734;2023-06-22T03:52:05;19.00;99.90
34574;DHT22;20809;49.594;8.734;2023-06-22T03:55:07;19.00;99.90
34574;DHT22;20809;49.594;8.734;2023-06-22T03:58:09;19.10;99.90
34574;DHT22;20809;49.594;8.734;2023-06-22T04:01:13;19.20;99.90
34574;DHT22;20809;49.594;8.734;2023-06-22T04:04:20;19.30;99.90
34574;DHT22;20809;49.594;8.734;2023-06-22T04:07:24;19.50;99.90
34574;DHT22;20809;49.594;8.734;2023-06-22T04:10:24;19.60;99.90
34574;DHT22;20809;49.594;8.734;2023-06-22T04:13:25;19.70;99.90
34574;DHT22;20809;49.594;8.734;2023-06-22T04:16:26;19.80;99.90
34574;DHT22;20809;49.594;8.734;2023-06-22T04:19:27;19.90;99.90
34574;DHT22;20809;49.594;8.734;2023-06-22T04:22:27;20.00;99.90
34574;DHT22;20809;49.594;8.734;2023-06-22T04:25:31;20.20;99.90
34574;DHT22;20809;49.594;8.734;2023-06-22T04:28:32;20.50;99.90
34574;DHT22;20809;49.594;8.734;2023-06-22T04:31:35;20.70;99.90
34574;DHT22;20809;49.594;8.734;2023-06-22T04:34:39;20.90;99.90
34574;DHT22;20809;49.594;8.734;2023-06-22T04:37:39;21.00;99.90
34574;DHT22;20809;49.594;8.734;2023-06-22T04:40:40;21.10;99.90
34574;DHT22;20809;49.594;8.734;2023-06-22T04:43:41;21.20;99.90
34574;DHT22;20809;49.594;8.734;2023-06-22T04:46:44;21.40;99.90
34574;DHT22;20809;49.594;8.734;2023-06-22T04:49:45;21.50;99.90
34574;DHT22;20809;49.594;8.734;2023-06-22T04:52:46;21.70;99.90
34574;DHT22;20809;49.594;8.734;2023-06-22T04:55:50;22.30;99.90
34574;DHT22;20809;49.594;8.734;2023-06-22T04:58:53;22.60;99.90
34574;DHT22;20809;49.594;8.734;2023-06-22T05:01:59;23.30;99.90
34574;DHT22;20809;49.594;8.734;2023-06-22T05:05:00;23.60;99.90
34574;DHT22;20809;49.594;8.734;2023-06-22T05:08:07;23.80;99.90
34574;DHT22;20809;49.594;8.734;2023-06-22T05:11:08;24.10;99.90
34574;DHT22;20809;49.594;8.734;2023-06-22T05:14:08;24.40;99.90
34574;DHT22;20809;49.594;8.734;2023-06-22T05:17:09;24.50;99.90
34574;DHT22;20809;49.594;8.734;2023-06-22T05:20:13;24.50;99.90
34574;DHT22;20809;49.594;8.734;2023-06-22T05:23:18;24.60;99.90
34574;DHT22;20809;49.594;8.734;2023-06-22T05:26:19;24.30;99.90
34574;DHT22;20809;49.594;8.734;2023-06-22T05:29:20;24.10;99.90
34574;DHT22;20809;49.594;8.734;2023-06-22T05:32:22;23.80;99.90
34574;DHT22;20809;49.594;8.734;2023-06-22T05:35:23;23.60;99.90
34574;DHT22;20809;49.594;8.734;2023-06-22T05:38:24;23.70;99.90
34574;DHT22;20809;49.594;8.734;2023-06-22T05:41:24;23.60;99.90
34574;DHT22;20809;49.594;8.734;2023-06-22T05:44:25;23.50;99.90
34574;DHT22;20809;49.594;8.734;2023-06-22T05:47:25;23.20;99.90
34574;DHT22;20809;49.594;8.734;2023-06-22T05:50:26;23.10;99.90
34574;DHT22;20809;49.594;8.734;2023-06-22T05:53:27;23.10;99.90
34574;DHT22;20809;49.594;8.734;2023-06-22T05:56:30;23.30;99.90
34574;DHT22;20809;49.594;8.734;2023-06-22T05:59:31;23.60;99.90
34574;DHT22;20809;49.594;8.734;2023-06-22T06:02:32;23.90;99.90
34574;DHT22;20809;49.594;8.734;2023-06-22T06:05:34;23.90;99.90
34574;DHT22;20809;49.594;8.734;2023-06-22T06:08:35;24.10;99.90
34574;DHT22;20809;49.594;8.734;2023-06-22T06:11:36;24.30;99.90
34574;DHT22;20809;49.594;8.734;2023-06-22T06:14:39;24.70;99.90
34574;DHT22;20809;49.594;8.734;2023-06-22T06:17:50;24.70;99.90
34574;DHT22;20809;49.594;8.734;2023-06-22T06:20:50;24.90;99.90
34574;DHT22;20809;49.594;8.734;2023-06-22T06:23:51;24.80;99.90
34574;DHT22;20809;49.594;8.734;2023-06-22T06:26:52;24.80;99.90
34574;DHT22;20809;49.594;8.734;2023-06-22T06:29:52;24.90;99.90
34574;DHT22;20809;49.594;8.734;2023-06-22T06:32:53;24.90;99.90
34574;DHT22;20809;49.594;8.734;2023-06-22T06:35:54;24.90;99.90
34574;DHT22;20809;49.594;8.734;2023-06-22T06:38:56;25.30;99.90
34574;DHT22;20809;49.594;8.734;2023-06-22T06:41:57;25.60;99.90
34574;DHT22;20809;49.594;8.734;2023-06-22T06:44:58;25.60;99.90
34574;DHT22;20809;49.594;8.734;2023-06-22T06:47:58;25.90;99.90
34574;DHT22;20809;49.594;8.734;2023-06-22T06:51:02;26.00;99.90
34574;DHT22;20809;49.594;8.734;2023-06-22T06:54:03;26.20;99.90
34574;DHT22;20809;49.594;8.734;2023-06-22T06:57:03;26.40;99.90
34574;DHT22;20809;49.594;8.734;2023-06-22T07:00:09;26.50;99.90
34574;DHT22;20809;49.594;8.734;2023-06-22T07:03:12;26.30;99.90
34574;DHT22;20809;49.594;8.734;2023-06-22T07:06:13;26.30;99.90
34574;DHT22;20809;49.594;8.734;2023-06-22T07:09:14;26.60;99.90
34574;DHT22;20809;49.594;8.734;2023-06-22T07:12:14;27.00;99.90
34574;DHT22;20809;49.594;8.734;2023-06-22T07:15:16;27.50;99.90
34574;DHT22;20809;49.594;8.734;2023-06-22T07:18:16;27.80;99.90
34574;DHT22;20809;49.594;8.734;2023-06-22T07:21:17;27.80;99.90
34574;DHT22;20809;49.594;8.734;2023-06-22T07:24:17;28.00;99.90
34574;DHT22;20809;49.594;8.734;2023-06-22T07:27:20;28.00;99.90
34574;DHT22;20809;49.594;8.734;2023-06-22T07:30:21;28.40;99.90
34574;DHT22;20809;49.594;8.734;2023-06-22T07:33:22;28.40;99.90
34574;DHT22;20809;49.594;8.734;2023-06-22T07:36:23;28.40;99.90
34574;DHT22;20809;49.594;8.734;2023-06-22T07:39:23;28.80;99.90
34574;DHT22;20809;49.594;8.734;2023-06-22T07:42:26;29.20;99.90
34574;DHT22;20809;49.594;8.734;2023-06-22T07:45:30;29.70;99.90
34574;DHT22;20809;49.594;8.734;2023-06-22T07:48:37;29.50;99.90
34574;DHT22;20809;49.594;8.734;2023-06-22T07:51:37;29.10;99.90
34574;DHT22;20809;49.594;8.734;2023-06-22T07:54:38;28.70;99.90
34574;DHT22;20809;49.594;8.734;2023-06-22T07:57:42;28.80;99.90
34574;DHT22;20809;49.594;8.734;2023-06-22T08:00:42;29.00;99.90
34574;DHT22;20809;49.594;8.734;2023-06-22T08:03:43;29.30;99.90
34574;DHT22;20809;49.594;8.734;2023-06-22T08:06:44;29.70;99.90
34574;DHT22;20809;49.594;8.734;2023-06-22T08:09:47;30.40;99.90
34574;DHT22;20809;49.594;8.734;2023-06-22T08:12:48;30.90;99.90
34574;DHT22;20809;49.594;8.734;2023-06-22T08:15:49;30.60;99.90
34574;DHT22;20809;49.594;8.734;2023-06-22T08:18:50;30.40;99.90
34574;DHT22;20809;49.594;8.734;2023-06-22T08:21:53;31.60;99.90
34574;DHT22;20809;49.594;8.734;2023-06-22T08:24:54;31.50;99.90
34574;DHT22;20809;49.594;8.734;2023-06-22T08:27:58;32.10;99.90
34574;DHT22;20809;49.594;8.734;2023-06-22T08:31:01;33.00;99.90
34574;DHT22;20809;49.594;8.734;2023-06-22T08:34:02;33.90;99.90
34574;DHT22;20809;49.594;8.734;2023-06-22T08:37:03;33.10;99.90
34574;DHT22;20809;49.594;8.734;2023-06-22T08:40:10;32.70;99.90
34574;DHT22;20809;49.594;8.734;2023-06-22T08:43:11;33.00;99.90
34574;DHT22;20809;49.594;8.734;2023-06-22T08:46:14;33.80;99.90
34574;DHT22;20809;49.594;8.734;2023-06-22T08:49:20;33.40;99.90
34574;DHT22;20809;49.594;8.734;2023-06-22T08:52:21;32.80;99.90
34574;DHT22;20809;49.594;8.734;2023-06-22T08:55:23;33.20;99.90
34574;DHT22;20809;49.594;8.734;2023-06-22T08:58:24;33.00;99.90
34574;DHT22;20809;49.594;8.734;2023-06-22T09:01:28;32.20;99.90
34574;DHT22;20809;49.594;8.734;2023-06-22T09:04:29;33.00;99.90
34574;DHT22;20809;49.594;8.734;2023-06-22T09:07:29;33.30;99.90
34574;DHT22;20809;49.594;8.734;2023-06-22T09:10:30;34.10;99.90
34574;DHT22;20809;49.594;8.734;2023-06-22T09:13:31;34.60;99.90
34574;DHT22;20809;49.594;8.734;2023-06-22T09:16:32;34.90;99.90
34574;DHT22;20809;49.594;8.734;2023-06-22T09:19:33;36.00;99.40
34574;DHT22;20809;49.594;8.734;2023-06-22T09:22:34;36.20;99.00
34574;DHT22;20809;49.594;8.734;2023-06-22T09:25:35;36.40;96.80
34574;DHT22;20809;49.594;8.734;2023-06-22T09:28:38;35.30;96.80
34574;DHT22;20809;49.594;8.734;2023-06-22T09:31:39;35.00;96.60
34574;DHT22;20809;49.594;8.734;2023-06-22T09:34:40;34.90;96.90
34574;DHT22;20809;49.594;8.734;2023-06-22T09:37:41;35.20;96.70
34574;DHT22;20809;49.594;8.734;2023-06-22T09:40:42;35.40;96.20
34574;DHT22;20809;49.594;8.734;2023-06-22T09:43:43;35.80;94.70
34574;DHT22;20809;49.594;8.734;2023-06-22T09:46:48;35.70;94.40
34574;DHT22;20809;49.594;8.734;2023-06-22T09:49:49;34.40;94.80
34574;DHT22;20809;49.594;8.734;2023-06-22T09:52:50;34.00;96.30
34574;DHT22;20809;49.594;8.734;2023-06-22T09:55:55;34.00;95.20
34574;DHT22;20809;49.594;8.734;2023-06-22T09:58:56;34.30;95.60
34574;DHT22;20809;49.594;8.734;2023-06-22T10:01:56;34.00;96.30
34574;DHT22;20809;49.594;8.734;2023-06-22T10:04:57;34.00;96.10
34574;DHT22;20809;49.594;8.734;2023-06-22T10:07:58;33.70;96.10
34574;DHT22;20809;49.594;8.734;2023-06-22T10:10:59;33.40;96.90
34574;DHT22;20809;49.594;8.734;2023-06-22T10:14:03;33.20;96.50
34574;DHT22;20809;49.594;8.734;2023-06-22T10:17:05;33.00;96.70
34574;DHT22;20809;49.594;8.734;2023-06-22T10:20:08;32.90;96.60
34574;DHT22;20809;49.594;8.734;2023-06-22T10:23:12;32.50;97.70
34574;DHT22;20809;49.594;8.734;2023-06-22T10:26:13;32.40;97.40
34574;DHT22;20809;49.594;8.734;2023-06-22T10:29:13;32.30;98.30
34574;DHT22;20809;49.594;8.734;2023-06-22T10:32:14;32.10;98.40
34574;DHT22;20809;49.594;8.734;2023-06-22T10:35:15;31.80;98.70
34574;DHT22;20809;49.594;8.734;2023-06-22T10:38:16;31.40;99.50
34574;DHT22;20809;49.594;8.734;2023-06-22T10:41:17;31.60;98.80
34574;DHT22;20809;49.594;8.734;2023-06-22T10:44:18;32.10;98.90
34574;DHT22;20809;49.594;8.734;2023-06-22T10:47:18;32.50;98.00
34574;DHT22;20809;49.594;8.734;2023-06-22T10:50:19;32.90;98.20
34574;DHT22;20809;49.594;8.734;2023-06-22T10:53:21;33.10;97.50
34574;DHT22;20809;49.594;8.734;2023-06-22T10:56:24;33.00;98.00
34574;DHT22;20809;49.594;8.734;2023-06-22T10:59:25;32.60;97.50
34574;DHT22;20809;49.594;8.734;2023-06-22T11:02:26;32.80;97.90
34574;DHT22;20809;49.594;8.734;2023-06-22T11:05:28;33.10;97.70
34574;DHT22;20809;49.594;8.734;2023-06-22T11:08:29;33.20;97.80
34574;DHT22;20809;49.594;8.734;2023-06-22T11:11:30;33.40;99.20
34574;DHT22;20809;49.594;8.734;2023-06-22T11:14:31;33.40;97.60
34574;DHT22;20809;49.594;8.734;2023-06-22T11:17:32;33.20;97.30
34574;DHT22;20809;49.594;8.734;2023-06-22T11:20:33;32.80;98.70
34574;DHT22;20809;49.594;8.734;2023-06-22T11:23:38;32.60;99.20
34574;DHT22;20809;49.594;8.734;2023-06-22T11:26:39;32.70;98.60
34574;DHT22;20809;49.594;8.734;2023-06-22T11:29:40;32.90;99.20
34574;DHT22;20809;49.594;8.734;2023-06-22T11:32:41;33.40;98.70
34574;DHT22;20809;49.594;8.734;2023-06-22T11:35:42;33.80;98.00
34574;DHT22;20809;49.594;8.734;2023-06-22T11:38:43;34.00;97.00
34574;DHT22;20809;49.594;8.734;2023-06-22T11:41:44;33.50;97.90
34574;DHT22;20809;49.594;8.734;2023-06-22T11:44:44;32.70;98.70
34574;DHT22;20809;49.594;8.734;2023-06-22T11:47:45;32.40;99.50
34574;DHT22;20809;49.594;8.734;2023-06-22T11:50:46;32.50;99.10
34574;DHT22;20809;49.594;8.734;2023-06-22T11:53:46;33.00;99.20
34574;DHT22;20809;49.594;8.734;2023-06-22T11:56:47;33.20;99.20
34574;DHT22;20809;49.594;8.734;2023-06-22T11:59:48;33.40;99.30
34574;DHT22;20809;49.594;8.734;2023-06-22T12:02:52;33.70;98.80
34574;DHT22;20809;49.594;8.734;2023-06-22T12:05:55;33.50;98.30
34574;DHT22;20809;49.594;8.734;2023-06-22T12:08:56;33.10;99.30
34574;DHT22;20809;49.594;8.734;2023-06-22T12:11:57;33.80;99.20
34574;DHT22;20809;49.594;8.734;2023-06-22T12:14:57;34.60;98.80
34574;DHT22;20809;49.594;8.734;2023-06-22T12:18:01;34.90;97.10
34574;DHT22;20809;49.594;8.734;2023-06-22T12:21:01;34.60;96.90
34574;DHT22;20809;49.594;8.734;2023-06-22T12:24:02;34.60;98.00
34574;DHT22;20809;49.594;8.734;2023-06-22T12:27:03;35.10;97.30
34574;DHT22;20809;49.594;8.734;2023-06-22T12:30:05;35.80;96.40
34574;DHT22;20809;49.594;8.734;2023-06-22T12:33:05;36.20;94.80
34574;DHT22;20809;49.594;8.734;2023-06-22T12:36:09;36.60;93.90
34574;DHT22;20809;49.594;8.734;2023-06-22T12:39:09;37.10;93.00
34574;DHT22;20809;49.594;8.734;2023-06-22T12:42:10;37.40;92.60
34574;DHT22;20809;49.594;8.734;2023-06-22T12:45:12;37.40;92.00
34574;DHT22;20809;49.594;8.734;2023-06-22T12:48:13;37.30;92.70
34574;DHT22;20809;49.594;8.734;2023-06-22T12:51:20;37.70;91.80
34574;DHT22;20809;49.594;8.734;2023-06-22T12:54:22;37.90;90.50
34574;DHT22;20809;49.594;8.734;2023-06-22T12:57:22;37.80;90.30
34574;DHT22;20809;49.594;8.734;2023-06-22T13:00:24;37.70;89.00
34574;DHT22;20809;49.594;8.734;2023-06-22T13:03:24;37.40;90.30
34574;DHT22;20809;49.594;8.734;2023-06-22T13:06:27;37.30;90.00
34574;DHT22;20809;49.594;8.734;2023-06-22T13:09:27;37.30;90.00
34574;DHT22;20809;49.594;8.734;2023-06-22T13:12:28;37.20;90.40
34574;DHT22;20809;49.594;8.734;2023-06-22T13:15:29;37.10;90.40
34574;DHT22;20809;49.594;8.734;2023-06-22T13:18:30;36.90;90.20
34574;DHT22;20809;49.594;8.734;2023-06-22T13:21:31;36.40;89.10
34574;DHT22;20809;49.594;8.734;2023-06-22T13:24:32;35.90;89.70
34574;DHT22;20809;49.594;8.734;2023-06-22T13:27:32;35.80;90.30
34574;DHT22;20809;49.594;8.734;2023-06-22T13:30:33;36.20;90.50
34574;DHT22;20809;49.594;8.734;2023-06-22T13:33:34;36.90;90.60
34574;DHT22;20809;49.594;8.734;2023-06-22T13:36:34;37.40;89.30
34574;DHT22;20809;49.594;8.734;2023-06-22T13:39:35;37.50;86.00
34574;DHT22;20809;49.594;8.734;2023-06-22T13:42:36;37.30;87.00
34574;DHT22;20809;49.594;8.734;2023-06-22T13:45:37;37.00;87.30
34574;DHT22;20809;49.594;8.734;2023-06-22T13:48:37;36.90;87.50
34574;DHT22;20809;49.594;8.734;2023-06-22T13:51:38;37.00;87.70
34574;DHT22;20809;49.594;8.734;2023-06-22T13:54:39;37.00;88.70
34574;DHT22;20809;49.594;8.734;2023-06-22T13:57:40;36.90;90.00
34574;DHT22;20809;49.594;8.734;2023-06-22T14:00:41;36.60;89.60
34574;DHT22;20809;49.594;8.734;2023-06-22T14:03:45;35.90;88.30
34574;DHT22;20809;49.594;8.734;2023-06-22T14:06:47;35.40;88.10
34574;DHT22;20809;49.594;8.734;2023-06-22T14:09:48;35.40;90.20
34574;DHT22;20809;49.594;8.734;2023-06-22T14:12:48;34.90;89.70
34574;DHT22;20809;49.594;8.734;2023-06-22T14:15:49;34.50;90.00
34574;DHT22;20809;49.594;8.734;2023-06-22T14:18:52;34.00;90.20
34574;DHT22;20809;49.594;8.734;2023-06-22T14:21:53;33.50;90.80
34574;DHT22;20809;49.594;8.734;2023-06-22T14:24:54;33.30;90.70
34574;DHT22;20809;49.594;8.734;2023-06-22T14:27:56;32.90;91.50
34574;DHT22;20809;49.594;8.734;2023-06-22T14:30:57;32.80;92.20
34574;DHT22;20809;49.594;8.734;2023-06-22T14:33:58;32.50;92.40
34574;DHT22;20809;49.594;8.734;2023-06-22T14:36:59;32.20;92.40
34574;DHT22;20809;49.594;8.734;2023-06-22T14:40:00;31.80;92.70
34574;DHT22;20809;49.594;8.734;2023-06-22T14:43:00;31.70;93.50
34574;DHT22;20809;49.594;8.734;2023-06-22T14:46:01;31.40;93.90
34574;DHT22;20809;49.594;8.734;2023-06-22T14:49:02;31.20;94.50
34574;DHT22;20809;49.594;8.734;2023-06-22T14:52:03;31.00;95.20
34574;DHT22;20809;49.594;8.734;2023-06-22T14:55:04;31.00;95.60
34574;DHT22;20809;49.594;8.734;2023-06-22T14:58:05;31.10;95.70
34574;DHT22;20809;49.594;8.734;2023-06-22T15:01:06;31.40;95.60
34574;DHT22;20809;49.594;8.734;2023-06-22T15:04:08;31.60;95.60
34574;DHT22;20809;49.594;8.734;2023-06-22T15:07:09;31.50;96.00
34574;DHT22;20809;49.594;8.734;2023-06-22T15:10:10;31.50;96.30
34574;DHT22;20809;49.594;8.734;2023-06-22T15:13:10;31.30;97.00
34574;DHT22;20809;49.594;8.734;2023-06-22T15:16:11;31.10;97.20
34574;DHT22;20809;49.594;8.734;2023-06-22T15:19:12;31.00;97.30
34574;DHT22;20809;49.594;8.734;2023-06-22T15:22:13;30.90;97.60
34574;DHT22;20809;49.594;8.734;2023-06-22T15:25:18;30.90;97.50
34574;DHT22;20809;49.594;8.734;2023-06-22T15:28:19;31.20;97.60
34574;DHT22;20809;49.594;8.734;2023-06-22T15:31:21;31.50;98.00
34574;DHT22;20809;49.594;8.734;2023-06-22T15:34:22;31.90;97.60
34574;DHT22;20809;49.594;8.734;2023-06-22T15:37:23;32.30;97.30
34574;DHT22;20809;49.594;8.734;2023-06-22T15:40:23;32.90;97.30
34574;DHT22;20809;49.594;8.734;2023-06-22T15:43:24;33.50;97.00
34574;DHT22;20809;49.594;8.734;2023-06-22T15:46:25;34.00;96.30
34574;DHT22;20809;49.594;8.734;2023-06-22T15:49:26;34.10;95.00
34574;DHT22;20809;49.594;8.734;2023-06-22T15:52:27;33.70;95.00
34574;DHT22;20809;49.594;8.734;2023-06-22T15:55:28;33.20;95.10
34574;DHT22;20809;49.594;8.734;2023-06-22T15:58:31;32.60;96.10
34574;DHT22;20809;49.594;8.734;2023-06-22T16:01:32;32.00;96.80
34574;DHT22;20809;49.594;8.734;2023-06-22T16:04:33;31.70;97.30
34574;DHT22;20809;49.594;8.734;2023-06-22T16:07:34;31.30;97.70
34574;DHT22;20809;49.594;8.734;2023-06-22T16:10:34;31.10;98.60
34574;DHT22;20809;49.594;8.734;2023-06-22T16:13:35;31.10;98.70
34574;DHT22;20809;49.594;8.734;2023-06-22T16:16:36;31.00;98.50
34574;DHT22;20809;49.594;8.734;2023-06-22T16:19:36;31.20;98.00
34574;DHT22;20809;49.594;8.734;2023-06-22T16:22:37;31.30;97.70
34574;DHT22;20809;49.594;8.734;2023-06-22T16:25:39;31.40;97.70
34574;DHT22;20809;49.594;8.734;2023-06-22T16:28:39;31.50;97.30
34574;DHT22;20809;49.594;8.734;2023-06-22T16:31:40;31.20;97.90
34574;DHT22;20809;49.594;8.734;2023-06-22T16:34:41;30.90;98.40
34574;DHT22;20809;49.594;8.734;2023-06-22T16:37:42;30.90;99.30
34574;DHT22;20809;49.594;8.734;2023-06-22T16:40:42;30.80;99.50
34574;DHT22;20809;49.594;8.734;2023-06-22T16:43:43;30.50;99.60
34574;DHT22;20809;49.594;8.734;2023-06-22T16:46:47;30.30;99.90
34574;DHT22;20809;49.594;8.734;2023-06-22T16:49:48;30.00;99.60
34574;DHT22;20809;49.594;8.734;2023-06-22T16:52:49;29.80;99.90
34574;DHT22;20809;49.594;8.734;2023-06-22T16:55:50;29.70;99.90
34574;DHT22;20809;49.594;8.734;2023-06-22T16:58:54;29.50;99.90
34574;DHT22;20809;49.594;8.734;2023-06-22T17:01:56;29.30;99.90
34574;DHT22;20809;49.594;8.734;2023-06-22T17:04:58;29.20;99.90
34574;DHT22;20809;49.594;8.734;2023-06-22T17:08:01;29.10;99.90
34574;DHT22;20809;49.594;8.734;2023-06-22T17:11:04;29.00;99.90
34574;DHT22;20809;49.594;8.734;2023-06-22T17:14:06;29.00;99.90
34574;DHT22;20809;49.594;8.734;2023-06-22T17:17:07;29.00;99.90
34574;DHT22;20809;49.594;8.734;2023-06-22T17:20:09;28.90;99.90
34574;DHT22;20809;49.594;8.734;2023-06-22T17:23:10;28.90;99.90
34574;DHT22;20809;49.594;8.734;2023-06-22T17:26:11;28.80;99.90
34574;DHT22;20809;49.594;8.734;2023-06-22T17:29:13;28.70;99.90
34574;DHT22;20809;49.594;8.734;2023-06-22T17:32:13;28.50;99.90
34574;DHT22;20809;49.594;8.734;2023-06-22T17:35:14;28.50;99.90
34574;DHT22;20809;49.594;8.734;2023-06-22T17:38:22;28.70;99.90
34574;DHT22;20809;49.594;8.734;2023-06-22T17:41:32;28.60;99.90
34574;DHT22;20809;49.594;8.734;2023-06-22T17:44:33;28.60;99.90
34574;DHT22;20809;49.594;8.734;2023-06-22T17:47:34;28.90;99.90
34574;DHT22;20809;49.594;8.734;2023-06-22T17:50:39;29.10;99.90
34574;DHT22;20809;49.594;8.734;2023-06-22T17:53:49;29.10;99.90
34574;DHT22;20809;49.594;8.734;2023-06-22T17:56:51;29.00;99.90
34574;DHT22;20809;49.594;8.734;2023-06-22T17:59:51;29.00;99.90
34574;DHT22;20809;49.594;8.734;2023-06-22T18:02:53;29.00;99.90
34574;DHT22;20809;49.594;8.734;2023-06-22T18:05:54;28.80;99.90
34574;DHT22;20809;49.594;8.734;2023-06-22T18:08:58;28.60;99.90
34574;DHT22;20809;49.594;8.734;2023-06-22T18:12:04;28.40;99.60
34574;DHT22;20809;49.594;8.734;2023-06-22T18:15:06;28.20;99.80
34574;DHT22;20809;49.594;8.734;2023-06-22T18:18:08;28.10;99.90
34574;DHT22;20809;49.594;8.734;2023-06-22T18:21:10;27.90;99.40
34574;DHT22;20809;49.594;8.734;2023-06-22T18:24:13;27.90;99.90
34574;DHT22;20809;49.594;8.734;2023-06-22T18:27:15;27.70;99.70
34574;DHT22;20809;49.594;8.734;2023-06-22T18:30:16;27.70;99.90
34574;DHT22;20809;49.594;8.734;2023-06-22T18:33:18;27.50;99.90
34574;DHT22;20809;49.594;8.734;2023-06-22T18:36:49;27.40;99.90
34574;DHT22;20809;49.594;8.734;2023-06-22T18:39:53;27.40;99.90
34574;DHT22;20809;49.594;8.734;2023-06-22T18:42:59;27.20;99.90
34574;DHT22;20809;49.594;8.734;2023-06-22T18:46:29;27.10;99.90
34574;DHT22;20809;49.594;8.734;2023-06-22T18:52:42;27.00;99.70
34574;DHT22;20809;49.594;8.734;2023-06-22T18:55:44;26.90;99.50
34574;DHT22;20809;49.594;8.734;2023-06-22T18:58:56;26.90;99.70
34574;DHT22;20809;49.594;8.734;2023-06-22T19:02:00;26.80;99.90
34574;DHT22;20809;49.594;8.734;2023-06-22T19:08:13;26.70;99.90
34574;DHT22;20809;49.594;8.734;2023-06-22T19:11:15;26.70;99.90
34574;DHT22;20809;49.594;8.734;2023-06-22T19:14:21;26.60;99.90
34574;DHT22;20809;49.594;8.734;2023-06-22T19:17:23;26.50;99.90
34574;DHT22;20809;49.594;8.734;2023-06-22T19:20:32;26.50;99.90
34574;DHT22;20809;49.594;8.734;2023-06-22T19:23:41;26.40;99.90
34574;DHT22;20809;49.594;8.734;2023-06-22T19:26:50;26.30;99.90